Accueil
METAR-TAF:

METAR-TAF

Aéroports :

Mönchengladbach, Allemagne

latitude: 51-13-49N, longitude: 006-30-16E, altitude: 38 m

Observation

Le bulletin a été fait il y a 3 heures et 9 minutes, à 18:20 UTC
Vent 7 kt de nord/nord-ouest
Température 8°C
Humidité 49%
Pression 1013 hPa
Visibilité 10 km ou plus
Nuages épars à une hauteur de 5500 ft, Cumulus congestus.
averses à proximité

METAR: EDLN 261820Z 34007KT 9999 VCSH SCT055TCU 08/M02 Q1013

Heure: 23:29 (21:29 UTC)

Prévision

Le bulletin a été fait il y a 4 heures et 29 minutes, à 17:00 UTC
Prévision valable du 26 à 18 UTC au 27 à 03 UTC
Vent 5 kt de nord
Visibilité 10 km ou plus
Nuages épars à une hauteur de 4500 ft

TAF: EDLN 261700Z 2618/2703 35005KT 9999 SCT045

Observations et prévisions météorologiques de plus de 4000 aéroports (messages METAR et TAF).

Les stations disponibles sont représentées par des disques jaunes et rouges sur la carte.

Passer la souris dessus pour voir le nom de la station.

Cliquer dessus pour voir les observations et prévisions météorologiques.

Pour changer de carte: cliquez sur les boutons verts avec une croix noire pour zoomer, sur le bouton vert avec un tiret pour effectuer un zoom arrière, ou sur les flèches vertes pour les cartes adjacentes.


METAR-TAF: